createdAt,value
2023-04-16T00:01:34.283Z,13.09
2023-04-16T00:03:14.067Z,13.11
2023-04-16T00:04:53.835Z,13.11
2023-04-16T00:06:33.603Z,13.09
2023-04-16T00:08:13.356Z,13.09
2023-04-16T00:09:53.135Z,13.1
2023-04-16T00:11:32.896Z,13.08
2023-04-16T00:13:12.654Z,13.07
2023-04-16T00:14:52.431Z,13.09
2023-04-16T00:16:32.214Z,13.06
2023-04-16T00:18:11.962Z,13.06
2023-04-16T00:19:51.740Z,13.07
2023-04-16T00:21:31.505Z,13.07
2023-04-16T00:23:11.314Z,13.05
2023-04-16T00:24:51.028Z,13.06
2023-04-16T00:26:30.793Z,13.05
2023-04-16T00:28:10.576Z,13.06
2023-04-16T00:29:50.349Z,13.06
2023-04-16T00:31:30.103Z,13.05
2023-04-16T00:33:09.870Z,13.05
2023-04-16T00:34:49.637Z,13.04
2023-04-16T00:36:29.424Z,13.04
2023-04-16T00:38:09.180Z,13.02
2023-04-16T00:39:48.959Z,13.03
2023-04-16T00:41:28.705Z,13.03
2023-04-16T00:43:08.482Z,13.02
2023-04-16T00:44:48.240Z,13.02
2023-04-16T00:46:28.027Z,13.02
2023-04-16T00:48:07.782Z,13.02
2023-04-16T00:49:47.580Z,13
2023-04-16T00:51:27.310Z,13
2023-04-16T00:53:07.076Z,13
2023-04-16T00:54:46.863Z,13
2023-04-16T00:56:26.623Z,12.99
2023-04-16T00:58:06.379Z,13
2023-04-16T00:59:46.157Z,13
2023-04-16T01:01:25.919Z,13
2023-04-16T01:03:05.675Z,12.99
2023-04-16T01:04:45.455Z,12.98
2023-04-16T01:06:25.348Z,12.96
2023-04-16T01:08:05.103Z,12.97
2023-04-16T01:09:44.881Z,12.97
2023-04-16T01:11:24.647Z,12.96
2023-04-16T01:13:04.420Z,12.96
2023-04-16T01:14:44.182Z,12.94
2023-04-16T01:16:23.946Z,12.94
2023-04-16T01:18:03.712Z,12.96
2023-04-16T01:19:43.475Z,12.95
2023-04-16T01:21:23.249Z,12.94
2023-04-16T01:23:03.023Z,12.93
2023-04-16T01:24:42.788Z,12.92
2023-04-16T01:26:22.555Z,12.94
2023-04-16T01:28:02.330Z,12.92
2023-04-16T01:29:42.078Z,12.92
2023-04-16T01:31:21.856Z,12.91
2023-04-16T01:33:01.629Z,12.92
2023-04-16T01:34:41.385Z,12.92
2023-04-16T01:36:21.204Z,12.91
2023-04-16T01:38:00.929Z,12.9
2023-04-16T01:39:40.692Z,12.9
2023-04-16T01:41:20.457Z,12.91
2023-04-16T01:43:00.241Z,12.89
2023-04-16T01:44:40.038Z,12.88
2023-04-16T01:46:19.764Z,12.9
2023-04-16T01:47:59.523Z,12.87
2023-04-16T01:49:39.292Z,12.88
2023-04-16T01:51:19.065Z,12.87
2023-04-16T01:52:58.838Z,12.87
2023-04-16T01:54:38.591Z,12.88
2023-04-16T01:56:18.360Z,12.88
2023-04-16T01:57:58.137Z,12.87
2023-04-16T01:59:37.910Z,12.87
2023-04-16T02:01:17.664Z,12.87
2023-04-16T02:02:57.433Z,12.85
2023-04-16T02:04:37.192Z,12.85
2023-04-16T02:06:16.974Z,12.86
2023-04-16T02:07:56.727Z,12.84
2023-04-16T02:09:36.502Z,12.85
2023-04-16T02:11:16.259Z,12.86
2023-04-16T02:12:56.026Z,12.85
2023-04-16T02:14:35.805Z,12.84
2023-04-16T02:16:15.605Z,12.83
2023-04-16T02:17:55.328Z,12.83
2023-04-16T02:19:35.095Z,12.83
2023-04-16T02:21:14.884Z,12.83
2023-04-16T02:22:54.642Z,12.84
2023-04-16T02:24:34.400Z,12.83
2023-04-16T02:26:14.171Z,12.83
2023-04-16T02:27:53.954Z,12.83
2023-04-16T02:29:33.714Z,12.81
2023-04-16T02:31:13.472Z,12.82
2023-04-16T02:32:53.245Z,12.81
2023-04-16T02:34:33.002Z,12.81
2023-04-16T02:36:12.784Z,12.8
2023-04-16T02:37:52.547Z,12.81
2023-04-16T02:39:32.305Z,12.8
2023-04-16T02:41:12.102Z,12.81
2023-04-16T02:42:51.842Z,12.79
2023-04-16T02:44:31.617Z,12.79
2023-04-16T02:46:11.386Z,12.79
2023-04-16T02:47:51.145Z,12.79
2023-04-16T02:49:30.915Z,12.79
2023-04-16T02:51:10.683Z,12.8
2023-04-16T02:52:50.475Z,12.78
2023-04-16T02:54:30.220Z,12.78
2023-04-16T02:56:10.006Z,12.8
2023-04-16T02:57:49.757Z,12.78
2023-04-16T02:59:29.572Z,12.79
2023-04-16T03:01:09.292Z,12.77
2023-04-16T03:02:49.063Z,12.79
2023-04-16T03:04:28.819Z,12.77
2023-04-16T03:06:08.673Z,12.78
2023-04-16T03:07:48.358Z,12.78
2023-04-16T03:09:28.118Z,12.79
2023-04-16T03:11:07.880Z,12.77
2023-04-16T03:12:47.665Z,12.77
2023-04-16T03:14:27.421Z,12.77
2023-04-16T03:16:07.200Z,12.78
2023-04-16T03:17:46.968Z,12.78
2023-04-16T03:19:26.729Z,12.77
2023-04-16T03:21:06.503Z,12.77
2023-04-16T03:22:46.259Z,12.78
2023-04-16T03:24:26.035Z,12.75
2023-04-16T03:26:05.796Z,12.77
2023-04-16T03:27:45.554Z,12.76
2023-04-16T03:29:25.339Z,12.74
2023-04-16T03:31:05.106Z,12.76
2023-04-16T03:32:44.870Z,12.75
2023-04-16T03:34:24.625Z,12.76
2023-04-16T03:36:04.399Z,12.75
2023-04-16T03:37:44.176Z,12.75
2023-04-16T03:39:23.953Z,12.76
2023-04-16T03:41:03.692Z,12.75
2023-04-16T03:42:43.464Z,12.74
2023-04-16T03:44:23.243Z,12.73
2023-04-16T03:46:03.009Z,12.73
2023-04-16T03:47:42.778Z,12.75
2023-04-16T03:49:22.543Z,12.72
2023-04-16T03:51:02.313Z,12.73
2023-04-16T03:52:42.087Z,12.73
2023-04-16T03:54:21.863Z,12.71
2023-04-16T03:56:01.616Z,12.72
2023-04-16T03:57:41.375Z,12.71
2023-04-16T03:59:21.196Z,12.72
2023-04-16T04:01:00.903Z,12.71
2023-04-16T04:02:40.679Z,12.73
2023-04-16T04:04:20.449Z,12.7
2023-04-16T04:06:00.218Z,12.72
2023-04-16T04:07:39.989Z,12.74
2023-04-16T04:09:19.747Z,12.75
2023-04-16T04:10:59.523Z,12.78
2023-04-16T04:12:39.285Z,12.79
2023-04-16T04:14:19.054Z,12.81
2023-04-16T04:15:58.816Z,12.84
2023-04-16T04:17:38.598Z,12.85
2023-04-16T04:19:18.347Z,12.88
2023-04-16T04:20:58.118Z,12.88
2023-04-16T04:22:37.898Z,12.92
2023-04-16T04:24:17.649Z,12.92
2023-04-16T04:25:57.422Z,12.93
2023-04-16T04:27:37.183Z,12.96
2023-04-16T04:29:16.959Z,12.96
2023-04-16T04:30:56.723Z,12.97
2023-04-16T04:32:36.498Z,13.01
2023-04-16T04:34:16.263Z,13.01
2023-04-16T04:35:56.023Z,13.03
2023-04-16T04:37:35.793Z,13.02
2023-04-16T04:39:15.575Z,13.06
2023-04-16T04:40:55.323Z,13.04
2023-04-16T04:42:35.119Z,13.06
2023-04-16T04:44:14.855Z,13.06
2023-04-16T04:45:54.646Z,13.08
2023-04-16T04:47:34.406Z,13.09
2023-04-16T04:49:14.189Z,13.1
2023-04-16T04:50:53.960Z,13.1
2023-04-16T04:52:33.724Z,13.13
2023-04-16T04:54:13.473Z,13.11
2023-04-16T04:55:53.256Z,13.13
2023-04-16T04:57:33.056Z,13.13
2023-04-16T04:59:12.861Z,13.13
2023-04-16T05:00:52.556Z,13.15
2023-04-16T05:02:32.319Z,13.15
2023-04-16T05:04:12.097Z,13.17
2023-04-16T05:05:51.901Z,13.14
2023-04-16T05:07:31.648Z,13.15
2023-04-16T05:09:11.427Z,13.2
2023-04-16T05:10:51.184Z,13.18
2023-04-16T05:12:30.949Z,13.2
2023-04-16T05:14:10.723Z,13.19
2023-04-16T05:15:50.476Z,13.2
2023-04-16T05:17:30.250Z,13.21
2023-04-16T05:19:10.025Z,13.2
2023-04-16T05:20:49.807Z,13.22
2023-04-16T05:22:29.563Z,13.23
2023-04-16T05:24:09.336Z,13.22
2023-04-16T05:25:49.102Z,13.21
2023-04-16T05:27:28.872Z,13.21
2023-04-16T05:29:08.649Z,13.22
2023-04-16T05:30:48.426Z,13.23
2023-04-16T05:32:28.183Z,13.24
2023-04-16T05:34:07.952Z,13.24
2023-04-16T05:35:47.715Z,13.23
2023-04-16T05:37:27.484Z,13.23
2023-04-16T05:39:07.260Z,13.24
2023-04-16T05:40:47.021Z,13.23
2023-04-16T05:42:26.797Z,13.28
2023-04-16T05:44:06.587Z,13.23
2023-04-16T05:45:46.337Z,13.25
2023-04-16T05:47:26.104Z,13.26
2023-04-16T05:49:05.884Z,13.26
2023-04-16T05:50:45.641Z,13.26
2023-04-16T05:52:25.426Z,13.25
2023-04-16T05:54:05.185Z,13.28
2023-04-16T05:55:44.956Z,13.26
2023-04-16T05:57:24.737Z,13.29
2023-04-16T05:59:04.489Z,13.3
2023-04-16T06:00:44.284Z,13.28
2023-04-16T06:02:24.056Z,13.31
2023-04-16T06:04:03.809Z,13.31
2023-04-16T06:05:43.606Z,13.33
2023-04-16T06:07:23.409Z,13.31
2023-04-16T06:09:03.114Z,13.31
2023-04-16T06:10:42.887Z,13.32
2023-04-16T06:12:22.673Z,13.3
2023-04-16T06:14:02.521Z,13.31
2023-04-16T06:15:42.194Z,13.3
2023-04-16T06:17:21.967Z,13.33
2023-04-16T06:19:01.747Z,13.32
2023-04-16T06:20:41.524Z,13.32
2023-04-16T06:22:21.274Z,13.32
2023-04-16T06:24:01.060Z,13.34
2023-04-16T06:25:40.819Z,13.34
2023-04-16T06:27:20.605Z,13.35
2023-04-16T06:29:00.365Z,13.34
2023-04-16T06:30:40.142Z,13.35
2023-04-16T06:32:19.901Z,13.39
2023-04-16T06:33:59.669Z,13.36
2023-04-16T06:35:39.442Z,13.36
2023-04-16T06:37:19.195Z,13.38
2023-04-16T06:38:58.992Z,13.39
2023-04-16T06:40:38.764Z,13.41
2023-04-16T06:42:18.535Z,13.43
2023-04-16T06:43:58.295Z,13.42
2023-04-16T06:45:38.082Z,13.4
2023-04-16T06:47:17.839Z,13.42
2023-04-16T06:48:57.610Z,13.42
2023-04-16T06:50:37.384Z,13.45
2023-04-16T06:52:17.147Z,13.43
2023-04-16T06:53:56.920Z,13.45
2023-04-16T06:55:36.683Z,13.46
2023-04-16T06:57:16.469Z,13.48
2023-04-16T06:58:56.221Z,13.5
2023-04-16T07:00:36.003Z,13.49
2023-04-16T07:02:15.783Z,13.5
2023-04-16T07:03:55.529Z,13.51
2023-04-16T07:05:35.303Z,13.53
2023-04-16T07:07:15.077Z,13.53
2023-04-16T07:08:54.846Z,13.56
2023-04-16T07:10:34.615Z,13.59
2023-04-16T07:12:14.384Z,13.62
2023-04-16T07:13:54.161Z,13.67
2023-04-16T07:15:33.929Z,13.69
2023-04-16T07:17:13.697Z,13.74
2023-04-16T07:18:53.475Z,13.77
2023-04-16T07:20:33.247Z,13.81
2023-04-16T07:22:13.021Z,13.82
2023-04-16T07:23:52.786Z,13.86
2023-04-16T07:25:32.557Z,13.87
2023-04-16T07:27:12.317Z,13.87
2023-04-16T07:28:52.091Z,13.88
2023-04-16T07:30:31.874Z,13.93
2023-04-16T07:32:11.654Z,13.92
2023-04-16T07:33:51.419Z,13.94
2023-04-16T07:35:31.167Z,13.95
2023-04-16T07:37:10.950Z,13.97
2023-04-16T07:38:50.766Z,13.98
2023-04-16T07:40:30.483Z,13.99
2023-04-16T07:42:10.280Z,14.02
2023-04-16T07:43:50.044Z,14.02
2023-04-16T07:45:29.819Z,14.07
2023-04-16T07:47:09.575Z,14.06
2023-04-16T07:48:49.339Z,14.07
2023-04-16T07:50:29.100Z,14.09
2023-04-16T07:52:08.890Z,14.09
2023-04-16T07:53:48.643Z,14.14
2023-04-16T07:55:28.411Z,14.12
2023-04-16T07:57:08.190Z,14.15
2023-04-16T07:58:47.950Z,14.15
2023-04-16T08:00:27.726Z,14.16
2023-04-16T08:02:07.493Z,14.19
2023-04-16T08:03:47.264Z,14.2
2023-04-16T08:05:27.033Z,14.23
2023-04-16T08:07:06.824Z,14.23
2023-04-16T08:08:46.585Z,14.26
2023-04-16T08:10:26.354Z,14.29
2023-04-16T08:12:06.121Z,14.3
2023-04-16T08:13:45.903Z,14.3
2023-04-16T08:15:25.674Z,14.3
2023-04-16T08:17:05.424Z,14.32
2023-04-16T08:18:45.262Z,14.36
2023-04-16T08:20:24.984Z,14.34
2023-04-16T08:22:04.756Z,14.35
2023-04-16T08:23:44.514Z,14.36
2023-04-16T08:25:24.292Z,14.37
2023-04-16T08:27:04.059Z,14.39
2023-04-16T08:28:43.817Z,14.39
2023-04-16T08:30:23.593Z,14.41
2023-04-16T08:32:03.381Z,14.39
2023-04-16T08:33:43.144Z,14.4
2023-04-16T08:35:22.921Z,14.4
2023-04-16T08:37:02.689Z,14.36
2023-04-16T08:38:42.456Z,14.37
2023-04-16T08:40:22.217Z,14.39
2023-04-16T08:42:01.985Z,14.37
2023-04-16T08:43:41.766Z,14.41
2023-04-16T08:45:21.544Z,14.4
2023-04-16T08:47:01.363Z,14.39
2023-04-16T08:48:41.076Z,14.41
2023-04-16T08:50:20.857Z,14.42
2023-04-16T08:52:00.625Z,14.42
2023-04-16T08:53:40.387Z,14.47
2023-04-16T08:55:20.149Z,14.46
2023-04-16T08:56:59.929Z,14.45
2023-04-16T08:58:39.700Z,14.45
2023-04-16T09:00:19.563Z,14.42
2023-04-16T09:01:59.227Z,14.41
2023-04-16T09:03:39.016Z,14.41
2023-04-16T09:05:18.845Z,14.42
2023-04-16T09:06:58.558Z,14.43
2023-04-16T09:08:38.326Z,14.42
2023-04-16T09:10:18.083Z,14.43
2023-04-16T09:11:57.877Z,14.45
2023-04-16T09:13:37.618Z,14.46
2023-04-16T09:15:17.481Z,14.47
2023-04-16T09:16:57.176Z,14.47
2023-04-16T09:18:36.940Z,14.48
2023-04-16T09:20:16.712Z,14.47
2023-04-16T09:21:56.469Z,14.45
2023-04-16T09:23:36.267Z,14.46
2023-04-16T09:25:16.018Z,14.44
2023-04-16T09:26:55.775Z,14.45
2023-04-16T09:28:35.562Z,14.45
2023-04-16T09:30:15.327Z,14.4
2023-04-16T09:31:55.090Z,14.38
2023-04-16T09:33:34.874Z,14.37
2023-04-16T09:35:14.630Z,14.36
2023-04-16T09:36:54.394Z,14.33
2023-04-16T09:38:34.196Z,14.33
2023-04-16T09:40:13.979Z,14.34
2023-04-16T09:41:53.727Z,14.34
2023-04-16T09:43:33.482Z,14.37
2023-04-16T09:45:13.255Z,14.34
2023-04-16T09:46:53.034Z,14.37
2023-04-16T09:48:32.835Z,14.38
2023-04-16T09:50:12.579Z,14.42
2023-04-16T09:51:52.346Z,14.44
2023-04-16T09:53:32.112Z,14.43
2023-04-16T09:55:11.891Z,14.43
2023-04-16T09:56:51.675Z,14.44
2023-04-16T09:58:31.447Z,14.47
2023-04-16T10:00:11.218Z,14.49
2023-04-16T10:01:50.975Z,14.54
2023-04-16T10:03:30.722Z,14.53
2023-04-16T10:05:10.513Z,14.53
2023-04-16T10:06:50.326Z,14.55
2023-04-16T10:08:30.050Z,14.58
2023-04-16T10:10:09.829Z,14.59
2023-04-16T10:11:49.668Z,14.57
2023-04-16T10:13:29.395Z,14.57
2023-04-16T10:15:09.137Z,14.59
2023-04-16T10:16:48.899Z,14.6
2023-04-16T10:18:28.681Z,14.61
2023-04-16T10:20:08.436Z,14.59
2023-04-16T10:21:48.214Z,14.62
2023-04-16T10:23:27.982Z,14.63
2023-04-16T10:25:07.743Z,14.61
2023-04-16T10:26:47.558Z,14.61
2023-04-16T10:28:27.322Z,14.62
2023-04-16T10:30:07.051Z,14.64
2023-04-16T10:31:46.849Z,14.64
2023-04-16T10:33:26.601Z,14.65
2023-04-16T10:35:06.359Z,14.65
2023-04-16T10:36:46.153Z,14.64
2023-04-16T10:38:26.117Z,14.66
2023-04-16T10:40:05.671Z,14.65
2023-04-16T10:41:45.455Z,14.65
2023-04-16T10:43:25.371Z,14.67
2023-04-16T10:45:05.002Z,14.69
2023-04-16T10:46:44.804Z,14.66
2023-04-16T10:48:24.526Z,14.68
2023-04-16T10:50:04.339Z,14.69
2023-04-16T10:51:44.128Z,14.71
2023-04-16T10:53:23.849Z,14.73
2023-04-16T10:55:03.687Z,14.73
2023-04-16T10:56:43.454Z,14.77
2023-04-16T10:58:23.169Z,14.74
2023-04-16T11:00:02.913Z,14.75
2023-04-16T11:01:42.697Z,14.75
2023-04-16T11:03:22.455Z,14.78
2023-04-16T11:05:02.313Z,14.77
2023-04-16T11:06:42.023Z,14.78
2023-04-16T11:08:21.779Z,14.77
2023-04-16T11:10:01.529Z,14.8
2023-04-16T11:11:41.326Z,14.78
2023-04-16T11:13:21.071Z,14.78
2023-04-16T11:15:00.840Z,14.8
2023-04-16T11:16:40.632Z,14.8
2023-04-16T11:18:20.398Z,14.82
2023-04-16T11:20:00.183Z,14.81
2023-04-16T11:21:39.936Z,14.81
2023-04-16T11:23:19.723Z,14.82
2023-04-16T11:24:59.465Z,14.8
2023-04-16T11:26:39.243Z,14.82
2023-04-16T11:28:19.007Z,14.83
2023-04-16T11:29:58.784Z,14.85
2023-04-16T11:31:38.557Z,14.87
2023-04-16T11:33:18.431Z,14.85
2023-04-16T11:34:58.103Z,14.87
2023-04-16T11:36:37.976Z,14.88
2023-04-16T11:38:17.630Z,14.88
2023-04-16T11:39:57.406Z,14.88
2023-04-16T11:41:37.175Z,14.88
2023-04-16T11:43:16.945Z,14.9
2023-04-16T11:44:56.730Z,14.91
2023-04-16T11:46:36.485Z,14.91
2023-04-16T11:48:16.254Z,14.91
2023-04-16T11:49:56.017Z,14.92
2023-04-16T11:51:35.814Z,14.95
2023-04-16T11:53:15.569Z,14.96
2023-04-16T11:54:55.340Z,14.97
2023-04-16T11:56:35.121Z,14.96
2023-04-16T11:58:14.874Z,14.99
2023-04-16T11:59:54.649Z,14.98
2023-04-16T12:01:34.440Z,15
2023-04-16T12:03:14.187Z,15.01
2023-04-16T12:04:53.956Z,15.03
2023-04-16T12:06:33.742Z,15.01
2023-04-16T12:08:13.525Z,15.03
2023-04-16T12:09:53.276Z,15.04
2023-04-16T12:11:33.051Z,15.06
2023-04-16T12:13:12.868Z,15.02
2023-04-16T12:14:52.592Z,15
2023-04-16T12:16:32.344Z,14.98
2023-04-16T12:18:12.124Z,14.96
2023-04-16T12:19:51.906Z,14.93
2023-04-16T12:21:31.676Z,14.92
2023-04-16T12:23:11.422Z,14.94
2023-04-16T12:24:51.193Z,14.96
2023-04-16T12:26:30.979Z,14.98
2023-04-16T12:28:10.754Z,15
2023-04-16T12:29:50.524Z,15.02
2023-04-16T12:31:30.273Z,15.01
2023-04-16T12:33:10.038Z,15.03
2023-04-16T12:34:49.822Z,15.04
2023-04-16T12:36:29.633Z,15.04
2023-04-16T12:38:09.362Z,15
2023-04-16T12:39:49.114Z,15.02
2023-04-16T12:41:28.897Z,15.03
2023-04-16T12:43:08.657Z,15.05
2023-04-16T12:44:48.434Z,15.05
2023-04-16T12:46:28.210Z,15.02
2023-04-16T12:48:07.973Z,15.05
2023-04-16T12:49:47.775Z,15.04
2023-04-16T12:51:27.568Z,15.04
2023-04-16T12:53:07.295Z,15.05
2023-04-16T12:54:47.063Z,15.06
2023-04-16T12:56:26.829Z,15.05
2023-04-16T12:58:06.750Z,15.05
2023-04-16T12:59:46.381Z,15.05
2023-04-16T13:01:26.140Z,15.06
2023-04-16T13:03:05.905Z,15.09
2023-04-16T13:04:45.676Z,15.07
2023-04-16T13:06:25.444Z,15.06
2023-04-16T13:08:05.220Z,15.06
2023-04-16T13:09:44.988Z,15.07
2023-04-16T13:11:24.784Z,15.08
2023-04-16T13:13:04.539Z,15.07
2023-04-16T13:14:44.293Z,15.1
2023-04-16T13:16:24.066Z,15.09
2023-04-16T13:18:03.852Z,15.09
2023-04-16T13:19:43.610Z,15.09
2023-04-16T13:21:23.387Z,15.11
2023-04-16T13:23:03.208Z,15.09
2023-04-16T13:24:42.946Z,15.09
2023-04-16T13:26:22.700Z,15.08
2023-04-16T13:28:02.460Z,15.08
2023-04-16T13:29:42.229Z,15.09
2023-04-16T13:31:22.022Z,15.07
2023-04-16T13:33:01.776Z,15.07
2023-04-16T13:34:41.616Z,15.08
2023-04-16T13:36:21.303Z,15.1
2023-04-16T13:38:01.224Z,15.09
2023-04-16T13:39:40.918Z,15.11
2023-04-16T13:41:20.716Z,15.1
2023-04-16T13:43:00.408Z,15.09
2023-04-16T13:44:40.168Z,15.09
2023-04-16T13:46:20.041Z,15.08
2023-04-16T13:47:59.728Z,15.06
2023-04-16T13:49:39.520Z,15.07
2023-04-16T13:51:19.285Z,15.08
2023-04-16T13:52:59.017Z,15.09
2023-04-16T13:54:38.843Z,15.09
2023-04-16T13:56:18.558Z,15.08
2023-04-16T13:57:58.353Z,15.1
2023-04-16T13:59:38.109Z,15.09
2023-04-16T14:01:17.941Z,15.1
2023-04-16T14:02:57.642Z,15.07
2023-04-16T14:04:37.423Z,15.11
2023-04-16T14:06:17.185Z,15.09
2023-04-16T14:07:56.952Z,15.13
2023-04-16T14:09:36.781Z,15.09
2023-04-16T14:11:16.488Z,15.09
2023-04-16T14:12:56.281Z,15.13
2023-04-16T14:14:36.047Z,15.1
2023-04-16T14:16:15.807Z,15.09
2023-04-16T14:17:55.566Z,15.11
2023-04-16T14:19:35.345Z,15.14
2023-04-16T14:21:15.125Z,15.12
2023-04-16T14:22:54.941Z,15.13
2023-04-16T14:24:34.659Z,15.13
2023-04-16T14:26:14.429Z,15.11
2023-04-16T14:27:54.195Z,15.13
2023-04-16T14:29:33.960Z,15.14
2023-04-16T14:31:13.790Z,15.14
2023-04-16T14:32:53.507Z,15.12
2023-04-16T14:34:33.269Z,15.15
2023-04-16T14:36:13.058Z,15.17
2023-04-16T14:37:52.814Z,15.17
2023-04-16T14:39:32.577Z,15.16
2023-04-16T14:41:12.369Z,15.16
2023-04-16T14:42:52.120Z,15.16
2023-04-16T14:44:31.900Z,15.18
2023-04-16T14:46:11.671Z,15.18
2023-04-16T14:47:51.434Z,15.17
2023-04-16T14:49:31.230Z,15.17
2023-04-16T14:51:10.991Z,15.15
2023-04-16T14:52:50.744Z,15.18
2023-04-16T14:54:30.543Z,15.16
2023-04-16T14:56:10.282Z,15.15
2023-04-16T14:57:50.061Z,15.15
2023-04-16T14:59:29.829Z,15.17
2023-04-16T15:01:09.593Z,15.17
2023-04-16T15:02:49.364Z,15.16
2023-04-16T15:04:29.140Z,15.16
2023-04-16T15:06:08.903Z,15.18
2023-04-16T15:07:48.676Z,15.17
2023-04-16T15:09:28.495Z,15.18
2023-04-16T15:11:08.227Z,15.16
2023-04-16T15:12:48.100Z,15.15
2023-04-16T15:14:27.767Z,15.16
2023-04-16T15:16:07.534Z,15.16
2023-04-16T15:17:47.300Z,15.15
2023-04-16T15:19:27.067Z,15.13
2023-04-16T15:21:06.840Z,15.15
2023-04-16T15:22:46.612Z,15.15
2023-04-16T15:24:26.388Z,15.1
2023-04-16T15:26:06.155Z,15.14
2023-04-16T15:27:46.034Z,15.12
2023-04-16T15:29:25.691Z,15.13
2023-04-16T15:31:05.495Z,15.14
2023-04-16T15:32:45.230Z,15.1
2023-04-16T15:34:24.998Z,15.09
2023-04-16T15:36:04.773Z,15.09
2023-04-16T15:37:44.550Z,15.09
2023-04-16T15:39:24.332Z,15.11
2023-04-16T15:41:04.082Z,15.1
2023-04-16T15:42:43.854Z,15.11
2023-04-16T15:44:23.625Z,15.09
2023-04-16T15:46:03.388Z,15.12
2023-04-16T15:47:43.165Z,15.09
2023-04-16T15:49:22.968Z,15.09
2023-04-16T15:51:02.707Z,15.08
2023-04-16T15:52:42.506Z,15.07
2023-04-16T15:54:22.258Z,15.1
2023-04-16T15:56:02.010Z,15.1
2023-04-16T15:57:41.788Z,15.08
2023-04-16T15:59:21.557Z,15.07
2023-04-16T16:01:01.363Z,15.07
2023-04-16T16:02:41.101Z,15.09
2023-04-16T16:04:20.870Z,15.07
2023-04-16T16:06:00.642Z,15.06
2023-04-16T16:07:40.446Z,15.06
2023-04-16T16:09:20.181Z,15.05
2023-04-16T16:10:59.944Z,15.07
2023-04-16T16:12:39.724Z,15.06
2023-04-16T16:14:19.482Z,15.06
2023-04-16T16:15:59.261Z,15.07
2023-04-16T16:17:39.023Z,15.05
2023-04-16T16:19:18.800Z,15.05
2023-04-16T16:20:58.619Z,15.05
2023-04-16T16:22:38.344Z,15.04
2023-04-16T16:24:18.115Z,15.04
2023-04-16T16:25:57.889Z,15.05
2023-04-16T16:27:37.695Z,15.03
2023-04-16T16:29:17.421Z,15.05
2023-04-16T16:30:57.171Z,15.03
2023-04-16T16:32:36.972Z,15
2023-04-16T16:34:16.734Z,15.01
2023-04-16T16:35:56.501Z,14.99
2023-04-16T16:37:36.268Z,15.02
2023-04-16T16:39:16.054Z,15.02
2023-04-16T16:40:55.804Z,14.99
2023-04-16T16:42:35.589Z,14.99
2023-04-16T16:44:15.349Z,14.99
2023-04-16T16:45:55.112Z,15
2023-04-16T16:47:34.885Z,14.94
2023-04-16T16:49:14.649Z,14.94
2023-04-16T16:50:54.430Z,14.9
2023-04-16T16:52:34.256Z,14.88
2023-04-16T16:54:13.961Z,14.89
2023-04-16T16:55:53.721Z,14.88
2023-04-16T16:57:33.507Z,14.86
2023-04-16T16:59:13.274Z,14.85
2023-04-16T17:00:53.042Z,14.82
2023-04-16T17:02:32.815Z,14.82
2023-04-16T17:04:12.574Z,14.8
2023-04-16T17:05:52.351Z,14.79
2023-04-16T17:07:32.118Z,14.78
2023-04-16T17:09:11.873Z,14.75
2023-04-16T17:10:51.661Z,14.74
2023-04-16T17:12:31.425Z,14.73
2023-04-16T17:14:11.210Z,14.71
2023-04-16T17:15:50.971Z,14.7
2023-04-16T17:17:30.731Z,14.68
2023-04-16T17:19:10.494Z,14.64
2023-04-16T17:20:50.266Z,14.64
2023-04-16T17:22:30.035Z,14.63
2023-04-16T17:24:09.798Z,14.63
2023-04-16T17:25:49.581Z,14.61
2023-04-16T17:27:29.345Z,14.59
2023-04-16T17:29:09.147Z,14.6
2023-04-16T17:30:48.881Z,14.56
2023-04-16T17:32:28.651Z,14.54
2023-04-16T17:34:08.405Z,14.55
2023-04-16T17:35:48.183Z,14.52
2023-04-16T17:37:27.943Z,14.53
2023-04-16T17:39:07.723Z,14.49
2023-04-16T17:40:47.478Z,14.5
2023-04-16T17:42:27.341Z,14.45
2023-04-16T17:44:07.009Z,14.45
2023-04-16T17:45:46.793Z,14.45
2023-04-16T17:47:26.551Z,14.43
2023-04-16T17:49:06.319Z,14.43
2023-04-16T17:50:46.078Z,14.41
2023-04-16T17:52:25.854Z,14.39
2023-04-16T17:54:05.621Z,14.36
2023-04-16T17:55:45.397Z,14.38
2023-04-16T17:57:25.161Z,14.36
2023-04-16T17:59:04.925Z,14.36
2023-04-16T18:00:44.687Z,14.35
2023-04-16T18:02:24.457Z,14.32
2023-04-16T18:04:04.224Z,14.3
2023-04-16T18:05:43.994Z,14.29
2023-04-16T18:07:23.764Z,14.27
2023-04-16T18:09:03.523Z,14.29
2023-04-16T18:10:43.290Z,14.26
2023-04-16T18:12:23.073Z,14.25
2023-04-16T18:14:02.836Z,14.23
2023-04-16T18:15:42.612Z,14.22
2023-04-16T18:17:22.374Z,14.2
2023-04-16T18:19:02.126Z,14.19
2023-04-16T18:20:41.906Z,14.17
2023-04-16T18:22:21.671Z,14.16
2023-04-16T18:24:01.435Z,14.15
2023-04-16T18:25:41.199Z,14.1
2023-04-16T18:27:20.972Z,14.08
2023-04-16T18:29:00.722Z,14.03
2023-04-16T18:30:40.512Z,14.01
2023-04-16T18:32:20.270Z,13.98
2023-04-16T18:34:00.068Z,13.94
2023-04-16T18:35:39.798Z,13.91
2023-04-16T18:37:19.588Z,13.89
2023-04-16T18:38:59.328Z,13.86
2023-04-16T18:40:39.125Z,13.84
2023-04-16T18:42:18.873Z,13.8
2023-04-16T18:43:58.634Z,13.77
2023-04-16T18:45:38.416Z,13.76
2023-04-16T18:47:18.173Z,13.73
2023-04-16T18:48:57.932Z,13.69
2023-04-16T18:50:37.706Z,13.68
2023-04-16T18:52:17.484Z,13.64
2023-04-16T18:53:57.261Z,13.62
2023-04-16T18:55:37.010Z,13.58
2023-04-16T18:57:16.848Z,13.56
2023-04-16T18:58:56.571Z,13.55
2023-04-16T19:00:36.306Z,13.53
2023-04-16T19:02:16.077Z,13.51
2023-04-16T19:03:55.840Z,13.49
2023-04-16T19:05:35.609Z,13.46
2023-04-16T19:07:15.378Z,13.45
2023-04-16T19:08:55.160Z,13.43
2023-04-16T19:10:34.923Z,13.42
2023-04-16T19:12:14.689Z,13.39
2023-04-16T19:13:54.462Z,13.37
2023-04-16T19:15:34.224Z,13.35
2023-04-16T19:17:14.007Z,13.33
2023-04-16T19:18:53.849Z,13.31
2023-04-16T19:20:33.519Z,13.29
2023-04-16T19:22:13.341Z,13.26
2023-04-16T19:23:53.058Z,13.26
2023-04-16T19:25:32.823Z,13.25
2023-04-16T19:27:12.612Z,13.21
2023-04-16T19:28:52.355Z,13.21
2023-04-16T19:30:32.144Z,13.19
2023-04-16T19:32:11.906Z,13.19
2023-04-16T19:33:51.673Z,13.15
2023-04-16T19:35:31.427Z,13.15
2023-04-16T19:37:11.215Z,13.14
2023-04-16T19:38:50.974Z,13.12
2023-04-16T19:40:30.735Z,13.11
2023-04-16T19:42:10.569Z,13.09
2023-04-16T19:43:50.269Z,13.06
2023-04-16T19:45:30.023Z,13.06
2023-04-16T19:47:09.817Z,13.05
2023-04-16T19:48:49.575Z,13.02
2023-04-16T19:50:29.351Z,13.03
2023-04-16T19:52:09.097Z,13.01
2023-04-16T19:53:48.940Z,12.98
2023-04-16T19:55:28.688Z,12.98
2023-04-16T19:57:08.412Z,12.96
2023-04-16T19:58:48.320Z,12.96
2023-04-16T20:00:27.940Z,12.93
2023-04-16T20:02:07.857Z,12.91
2023-04-16T20:03:47.512Z,12.91
2023-04-16T20:05:27.251Z,12.89
2023-04-16T20:07:07.019Z,12.88
2023-04-16T20:08:46.827Z,12.87
2023-04-16T20:10:26.549Z,12.86
2023-04-16T20:12:06.335Z,12.84
2023-04-16T20:13:46.077Z,12.83
2023-04-16T20:15:25.860Z,12.84
2023-04-16T20:17:05.663Z,12.81
2023-04-16T20:18:45.439Z,12.79
2023-04-16T20:20:25.159Z,12.79
2023-04-16T20:22:04.908Z,12.77
2023-04-16T20:23:44.673Z,12.77
2023-04-16T20:25:24.555Z,12.75
2023-04-16T20:27:04.210Z,12.73
2023-04-16T20:28:43.992Z,12.73
2023-04-16T20:30:23.767Z,12.72
2023-04-16T20:32:03.539Z,12.72
2023-04-16T20:33:43.369Z,12.7
2023-04-16T20:35:23.058Z,12.69
2023-04-16T20:37:02.884Z,12.68
2023-04-16T20:38:42.582Z,12.68
2023-04-16T20:40:22.363Z,12.65
2023-04-16T20:42:02.139Z,12.65
2023-04-16T20:43:41.903Z,12.63
2023-04-16T20:45:21.659Z,12.63
2023-04-16T20:47:01.456Z,12.63
2023-04-16T20:48:41.235Z,12.61
2023-04-16T20:50:20.972Z,12.6
2023-04-16T20:52:00.786Z,12.58
2023-04-16T20:53:40.498Z,12.59
2023-04-16T20:55:20.277Z,12.58
2023-04-16T20:57:00.046Z,12.57
2023-04-16T20:58:39.798Z,12.55
2023-04-16T21:00:19.568Z,12.55
2023-04-16T21:01:59.373Z,12.54
2023-04-16T21:03:39.116Z,12.53
2023-04-16T21:05:18.965Z,12.53
2023-04-16T21:06:58.707Z,12.5
2023-04-16T21:08:38.417Z,12.51
2023-04-16T21:10:18.170Z,12.48
2023-04-16T21:11:57.944Z,12.49
2023-04-16T21:13:37.703Z,12.48
2023-04-16T21:15:17.538Z,12.47
2023-04-16T21:16:57.252Z,12.45
2023-04-16T21:18:37.016Z,12.45
2023-04-16T21:20:16.794Z,12.43
2023-04-16T21:21:56.538Z,12.43
2023-04-16T21:23:36.388Z,12.41
2023-04-16T21:25:16.090Z,12.39
2023-04-16T21:26:55.871Z,12.39
2023-04-16T21:28:35.625Z,12.39
2023-04-16T21:30:15.385Z,12.36